Time;durP1;ratioP1;P1;durP2;ratioP2;P2;SDS_P1;SDS_P2;PMS_P1;PMS_P2;Temp;Humidity;BMP_temperature;BMP_pressure;BME280_temperature;BME280_humidity;BME280_pressure;Samples;Min_cycle;Max_cycle;Signal;HPM_P1;HPM_P2
2022/06/09 00:00:47;;;;;;;6.97;3.90;;;;;;;13.18;58.64;99706.44;5034126;28;20536;-82
2022/06/09 00:03:24;;;;;;;9.98;4.55;;;;;;;13.15;58.55;99703.84;5033594;28;20136;-81
2022/06/09 00:05:52;;;;;;;10.50;3.97;;;;;;;13.09;59.00;99696.91;5034620;28;20099;-81
2022/06/09 00:08:20;;;;;;;7.60;3.80;;;;;;;12.98;59.25;99702.25;5034148;28;20053;-82
2022/06/09 00:10:57;;;;;;;6.65;3.60;;;;;;;13.02;59.25;99703.97;5034835;28;20065;-82
2022/06/09 00:13:25;;;;;;;10.35;3.85;;;;;;;12.90;59.25;99685.72;5034171;28;20140;-80
2022/06/09 00:15:52;;;;;;;11.18;4.90;;;;;;;12.99;59.36;99708.34;5034774;28;20073;-81
2022/06/09 00:18:19;;;;;;;9.90;4.70;;;;;;;12.96;59.31;99708.41;5033516;28;20053;-81
2022/06/09 00:20:47;;;;;;;9.13;4.65;;;;;;;12.95;59.19;99707.53;5033533;28;20049;-81
2022/06/09 00:23:16;;;;;;;8.60;4.18;;;;;;;12.90;59.17;99704.06;5032910;28;20053;-81
2022/06/09 00:25:44;;;;;;;9.70;4.10;;;;;;;12.91;59.27;99709.31;5033518;28;20049;-81
2022/06/09 00:28:12;;;;;;;13.90;4.30;;;;;;;12.93;59.72;99709.31;5034702;28;20053;-80
2022/06/09 00:30:39;;;;;;;11.07;4.70;;;;;;;12.90;59.27;99704.06;5034824;28;20053;-79
2022/06/09 00:33:06;;;;;;;11.55;4.72;;;;;;;12.90;59.61;99709.31;5034819;28;20144;-81
2022/06/09 00:35:34;;;;;;;15.07;4.40;;;;;;;12.85;60.08;99704.09;5032620;28;20516;-80
2022/06/09 00:38:01;;;;;;;12.77;4.35;;;;;;;12.87;60.01;99712.81;5033185;28;20430;-80
2022/06/09 00:40:28;;;;;;;9.52;4.47;;;;;;;12.83;59.88;99690.13;5033220;28;20057;-79
2022/06/09 00:42:55;;;;;;;10.38;4.88;;;;;;;12.89;60.09;99707.59;5033618;28;20107;-80
2022/06/09 00:45:42;;;;;;;11.55;4.95;;;;;;;12.86;60.14;99702.34;5033880;28;20072;-79
2022/06/09 00:48:32;;;;;;;7.07;4.45;;;;;;;12.83;59.93;99707.63;5034400;28;20077;-80
2022/06/09 00:51:18;;;;;;;10.20;4.47;;;;;;;12.82;60.20;99704.16;5034017;28;20073;-81
2022/06/09 00:53:47;;;;;;;13.18;4.05;;;;;;;12.85;60.27;99696.25;5043874;28;20034;-78
2022/06/09 00:56:15;;;;;;;10.55;4.10;;;;;;;12.87;60.17;99698.84;5056911;28;20056;-79
2022/06/09 00:58:46;;;;;;;11.32;4.72;;;;;;;12.88;60.34;99695.34;5050219;28;20080;-80
2022/06/09 01:01:15;;;;;;;11.88;4.63;;;;;;;12.88;60.13;99700.59;5048822;28;20049;-81
2022/06/09 01:03:51;;;;;;;8.38;4.70;;;;;;;12.88;59.97;99692.72;5033684;28;20571;-81
2022/06/09 01:06:47;;;;;;;12.00;4.32;;;;;;;12.91;59.71;99695.34;5034097;28;20076;-81
2022/06/09 01:09:18;;;;;;;13.55;4.57;;;;;;;12.94;59.79;99703.16;5032311;28;20064;-81
2022/06/09 01:11:50;;;;;;;11.45;4.50;;;;;;;12.99;59.46;99708.34;5033585;28;20057;-81
2022/06/09 01:14:23;;;;;;;17.00;4.93;;;;;;;13.02;59.27;99700.47;5034802;28;20095;-81
2022/06/09 01:17:05;;;;;;;13.90;5.60;;;;;;;13.02;59.14;99696.09;5037378;28;20132;-80
2022/06/09 01:20:04;;;;;;;8.02;5.38;;;;;;;13.07;58.70;99691.66;5036666;28;20071;-80
2022/06/09 01:22:43;;;;;;;9.98;5.32;;;;;;;13.13;58.52;99695.13;5036732;28;20160;-80
2022/06/09 01:25:13;;;;;;;14.10;5.40;;;;;;;13.21;58.57;99698.56;5035518;28;20413;-81
2022/06/09 01:28:11;;;;;;;26.63;5.85;;;;;;;13.23;58.40;99695.03;5036295;28;20524;-80
2022/06/09 01:31:07;;;;;;;14.60;5.95;;;;;;;13.28;58.30;99695.88;5036625;28;20061;-80
2022/06/09 01:34:10;;;;;;;16.98;5.65;;;;;;;13.35;58.06;99694.03;5036550;28;20444;-80
2022/06/09 01:36:51;;;;;;;16.20;5.55;;;;;;;13.45;58.08;99700.94;5035522;28;20049;-80
2022/06/09 01:39:28;;;;;;;12.07;5.38;;;;;;;13.48;57.82;99700.91;5036676;28;20103;-81
2022/06/09 01:41:55;;;;;;;15.77;6.00;;;;;;;13.64;57.67;99703.38;5036284;28;20424;-79
2022/06/09 01:44:30;;;;;;;12.45;5.55;;;;;;;13.71;57.79;99692.75;5036007;28;20053;-81
2022/06/09 01:46:58;;;;;;;15.07;6.00;;;;;;;13.85;57.25;99708.38;5035203;28;20049;-81
2022/06/09 01:49:28;;;;;;;9.75;5.75;;;;;;;13.99;56.70;99704.69;5036270;28;20050;-80
2022/06/09 01:51:58;;;;;;;10.82;5.40;;;;;;;14.06;55.72;99685.31;5036173;28;20055;-80
2022/06/09 01:54:32;;;;;;;9.15;5.10;;;;;;;14.44;54.72;99705.78;5036086;28;20567;-80
2022/06/09 01:57:08;;;;;;;11.40;5.43;;;;;;;14.70;53.20;99686.16;5036535;28;20057;-80
2022/06/09 01:59:44;;;;;;;10.93;5.18;;;;;;;15.66;51.61;99695.81;5036091;28;20096;-81
2022/06/09 02:02:28;;;;;;;13.50;5.75;;;;;;;17.78;47.93;99688.94;5035928;28;20453;-81
2022/06/09 02:05:04;;;;;;;9.88;6.45;;;;;;;20.62;42.04;99678.31;5036435;28;20113;-80
2022/06/09 02:07:33;;;;;;;17.92;6.25;;;;;;;22.98;37.36;99678.28;5036215;28;20056;-81
2022/06/09 02:10:29;;;;;;;15.38;6.05;;;;;;;24.71;34.01;99676.06;5018954;28;20057;-81
2022/06/09 02:13:05;;;;;;;10.98;6.03;;;;;;;25.94;31.36;99671.34;5038542;28;20104;-80
2022/06/09 02:15:45;;;;;;;12.68;5.90;;;;;;;26.92;29.75;99672.16;5034249;28;20053;-80
2022/06/09 02:18:16;;;;;;;12.15;5.88;;;;;;;27.64;28.61;99671.72;5034379;28;20461;-80
2022/06/09 02:20:48;;;;;;;13.00;6.22;;;;;;;28.09;27.56;99672.09;5035453;28;20069;-80
2022/06/09 02:23:16;;;;;;;13.20;6.70;;;;;;;28.66;26.58;99674.19;5035769;28;20069;-80
2022/06/09 02:25:43;;;;;;;10.88;6.70;;;;;;;28.93;26.14;99665.88;5033329;28;20056;-81
2022/06/09 02:28:10;;;;;;;13.60;7.43;;;;;;;29.47;25.78;99669.84;5035753;28;20053;-80
2022/06/09 02:30:38;;;;;;;15.82;7.53;;;;;;;29.90;25.09;99674.53;5035516;28;20050;-80
2022/06/09 02:33:16;;;;;;;18.67;8.25;;;;;;;30.66;24.41;99671.97;5034280;28;20053;-81
2022/06/09 02:35:47;;;;;;;11.80;7.63;;;;;;;31.55;23.07;99669.81;5035359;28;20137;-81
2022/06/09 02:38:15;;;;;;;18.92;7.97;;;;;;;32.56;22.04;99664.50;5035183;28;20057;-80
2022/06/09 02:40:42;;;;;;;13.38;7.45;;;;;;;33.79;20.57;99666.50;5035383;28;20064;-79
2022/06/09 02:43:09;;;;;;;20.02;7.90;;;;;;;34.67;19.78;99670.44;5033996;28;20053;-84
2022/06/09 02:45:36;;;;;;;13.13;7.07;;;;;;;35.35;19.12;99670.88;5017603;28;20049;-81
2022/06/09 02:48:04;;;;;;;16.10;7.28;;;;;;;35.57;18.83;99653.19;5035570;28;20056;-83
2022/06/09 02:50:32;;;;;;;15.43;8.27;;;;;;;35.83;18.61;99664.03;5035877;28;20497;-80
2022/06/09 02:53:00;;;;;;;20.20;9.13;;;;;;;36.34;18.04;99659.50;5035937;28;20061;-81
2022/06/09 02:55:28;;;;;;;16.57;9.30;;;;;;;36.97;17.64;99662.66;5033910;28;20456;-81
2022/06/09 02:57:56;;;;;;;16.00;9.27;;;;;;;37.10;17.44;99661.16;5035014;28;20394;-82
2022/06/09 03:00:23;;;;;;;17.75;9.70;;;;;;;37.32;17.30;99666.06;5035017;28;20144;-81
2022/06/09 03:02:53;;;;;;;14.38;9.25;;;;;;;38.08;16.73;99665.56;5035319;28;20054;-80
2022/06/09 03:05:21;;;;;;;16.88;9.70;;;;;;;38.28;16.45;99668.69;5035441;28;20045;-81
2022/06/09 03:07:48;;;;;;;19.00;10.32;;;;;;;38.11;16.42;99670.63;5033905;28;20049;-81
2022/06/09 03:10:16;;;;;;;19.80;9.98;;;;;;;38.17;16.65;99666.38;5033354;28;20061;-80
2022/06/09 03:12:43;;;;;;;24.83;10.07;;;;;;;38.80;16.05;99658.16;5034424;28;20064;-79
2022/06/09 03:15:13;;;;;;;17.35;10.77;;;;;;;39.11;16.03;99674.47;5034421;28;20103;-80
2022/06/09 03:17:40;;;;;;;20.80;10.65;;;;;;;39.76;15.38;99661.19;5034169;28;20547;-81
2022/06/09 03:20:13;;;;;;;21.20;10.50;;;;;;;39.64;14.99;99655.34;5034929;28;20080;-81
2022/06/09 03:22:43;;;;;;;21.67;10.98;;;;;;;40.34;14.90;99664.94;5034280;28;20432;-82
2022/06/09 03:25:10;;;;;;;17.00;11.43;;;;;;;40.95;14.34;99675.47;5034589;28;20060;-81
2022/06/09 03:27:37;;;;;;;20.10;11.93;;;;;;;40.70;14.27;99653.06;5034169;28;20073;-82
2022/06/09 03:30:04;;;;;;;22.58;11.80;;;;;;;41.30;13.62;99654.50;5033251;28;20064;-82
2022/06/09 03:32:32;;;;;;;21.23;12.40;;;;;;;42.19;13.02;99663.91;5033974;28;20116;-82
2022/06/09 03:34:59;;;;;;;18.52;11.77;;;;;;;42.78;12.78;99670.59;5032753;28;20057;-82
2022/06/09 03:37:28;;;;;;;18.33;11.38;;;;;;;43.52;12.31;99666.00;5033893;28;20118;-81
2022/06/09 03:39:56;;;;;;;21.08;12.07;;;;;;;43.79;11.75;99661.28;5034290;28;20064;-82
2022/06/09 03:42:23;;;;;;;16.20;11.30;;;;;;;43.99;11.79;99658.44;5034043;28;20053;-81
2022/06/09 03:44:49;;;;;;;14.30;10.88;;;;;;;44.35;11.45;99660.63;5033521;28;20432;-81
2022/06/09 03:47:17;;;;;;;16.80;11.50;;;;;;;44.75;11.34;99676.09;5033829;28;20053;-82
2022/06/09 03:49:44;;;;;;;19.27;11.57;;;;;;;44.71;11.09;99653.66;5033697;28;20057;-83
2022/06/09 03:52:11;;;;;;;19.30;12.65;;;;;;;45.04;10.72;99668.25;5033754;28;20057;-83
2022/06/09 03:54:38;;;;;;;19.50;11.65;;;;;;;44.90;10.86;99649.09;5033676;28;20053;-82
2022/06/09 03:57:05;;;;;;;15.00;10.75;;;;;;;44.30;11.22;99662.38;5032277;28;20107;-82
2022/06/09 03:59:32;;;;;;;21.07;11.63;;;;;;;43.94;11.73;99639.00;5027039;28;20045;-87
2022/06/09 04:02:05;;;;;;;21.25;12.27;;;;;;;44.37;11.23;99661.25;5032776;28;20072;-84
2022/06/09 04:04:32;;;;;;;29.10;11.75;;;;;;;44.91;11.26;99650.75;5033591;28;20067;-82
2022/06/09 04:06:59;;;;;;;21.38;11.32;;;;;;;44.90;11.18;99643.59;5033340;28;20050;-82
2022/06/09 04:09:26;;;;;;;19.73;11.25;;;;;;;44.67;11.39;99663.44;5032427;28;20049;-85
2022/06/09 04:11:53;;;;;;;17.92;10.70;;;;;;;44.63;11.16;99650.31;5027943;28;20080;-82
2022/06/09 04:14:20;;;;;;;18.63;11.57;;;;;;;43.75;11.50;99669.09;5020464;28;20081;-83
2022/06/09 04:16:47;;;;;;;18.92;10.88;;;;;;;41.94;12.95;99653.41;5021513;28;20148;-83
2022/06/09 04:19:17;;;;;;;19.48;11.40;;;;;;;38.81;15.58;99655.25;5034634;28;20077;-83
2022/06/09 04:21:44;;;;;;;30.60;11.73;;;;;;;35.59;18.36;99651.16;5034881;28;20057;-83
2022/06/09 04:24:12;;;;;;;19.30;11.17;;;;;;;33.62;20.46;99652.75;5015736;28;20521;-83
2022/06/09 04:26:40;;;;;;;22.13;10.57;;;;;;;32.14;22.22;99659.28;5033609;28;20532;-82
2022/06/09 04:29:11;;;;;;;24.38;11.18;;;;;;;31.11;23.38;99661.00;5030504;28;20073;-84
2022/06/09 04:31:41;;;;;;;18.88;10.15;;;;;;;30.32;24.19;99666.66;5022927;28;20049;-83
2022/06/09 04:34:08;;;;;;;18.48;10.88;;;;;;;29.86;24.80;99654.22;5032208;28;20037;-82
2022/06/09 04:36:36;;;;;;;20.48;11.27;;;;;;;29.42;25.34;99653.19;5053045;28;20076;-81
2022/06/09 04:39:05;;;;;;;21.52;10.98;;;;;;;28.79;26.08;99639.19;5057285;28;20056;-83
2022/06/09 04:41:32;;;;;;;20.77;10.43;;;;;;;28.35;26.61;99651.38;5049773;28;20056;-83
2022/06/09 04:43:59;;;;;;;21.17;10.85;;;;;;;27.74;27.65;99670.94;5031565;28;20160;-79
2022/06/09 04:46:26;;;;;;;20.73;10.43;;;;;;;27.46;28.40;99664.00;5026496;28;20127;-83
2022/06/09 04:48:54;;;;;;;23.63;10.25;;;;;;;27.43;28.67;99649.97;5012428;28;20567;-81
2022/06/09 04:51:27;;;;;;;22.67;10.80;;;;;;;27.20;28.77;99654.19;5012798;28;20413;-81
2022/06/09 04:53:54;;;;;;;16.55;10.70;;;;;;;27.05;29.57;99667.69;5013445;28;20141;-81
2022/06/09 04:56:22;;;;;;;25.38;11.15;;;;;;;26.94;29.81;99678.28;5011523;28;20449;-81
2022/06/09 04:58:50;;;;;;;19.88;10.70;;;;;;;26.74;30.13;99668.91;5015518;28;20107;-81
2022/06/09 05:01:24;;;;;;;23.92;10.45;;;;;;;26.61;30.29;99651.91;5023359;28;20084;-81
2022/06/09 05:03:52;;;;;;;21.13;10.85;;;;;;;26.70;30.15;99664.72;5022586;28;20054;-80
2022/06/09 05:06:22;;;;;;;20.40;10.18;;;;;;;26.61;30.68;99652.78;5029622;28;20053;-82
2022/06/09 05:08:55;;;;;;;19.90;9.63;;;;;;;26.59;30.08;99672.56;5020940;28;20088;-83
2022/06/09 05:11:23;;;;;;;20.38;9.95;;;;;;;26.60;29.88;99668.94;5014571;28;20062;-84
2022/06/09 05:13:50;;;;;;;25.58;10.18;;;;;;;26.43;30.22;99672.72;5011662;28;20058;-83
2022/06/09 05:16:19;;;;;;;14.10;8.27;;;;;;;26.33;30.50;99675.13;5022512;28;20053;-82
2022/06/09 05:18:46;;;;;;;18.85;9.27;;;;;;;26.38;30.08;99672.16;5032651;28;20149;-82
2022/06/09 05:21:13;;;;;;;14.95;7.60;;;;;;;26.35;30.02;99676.75;5032638;28;20137;-82
2022/06/09 05:23:41;;;;;;;16.10;7.40;;;;;;;26.03;29.35;99649.38;5029292;28;20081;-82
2022/06/09 05:26:08;;;;;;;17.90;7.80;;;;;;;26.00;29.36;99668.28;5026945;28;20050;-82
2022/06/09 05:31:28;;;;;;;16.70;7.22;;;;;;;25.82;30.01;99661.41;5009940;28;20104;-83
2022/06/09 05:33:58;;;;;;;25.30;7.60;;;;;;;25.78;30.42;99666.09;4998014;28;20421;-82
2022/06/09 05:36:29;;;;;;;14.68;6.80;;;;;;;25.83;30.08;99663.97;5016373;28;20104;-84
2022/06/09 05:47:12;;;;;;;17.98;7.68;;;;;;;26.10;30.89;99672.13;5012331;28;20056;-81
2022/06/09 05:49:39;;;;;;;17.65;7.15;;;;;;;26.14;30.83;99660.25;5012448;28;20049;-81
2022/06/09 05:52:06;;;;;;;13.45;6.38;;;;;;;26.12;29.90;99638.09;5012895;28;20112;-80
2022/06/09 05:54:33;;;;;;;16.05;6.13;;;;;;;26.33;30.48;99670.63;5012457;28;20049;-82
2022/06/09 05:57:00;;;;;;;18.73;6.00;;;;;;;26.47;30.90;99671.53;5012921;28;20085;-81
2022/06/09 05:59:27;;;;;;;18.98;7.00;;;;;;;26.61;30.14;99667.97;5012869;28;20128;-81
2022/06/09 06:01:54;;;;;;;14.60;6.20;;;;;;;26.64;29.97;99665.13;5015981;28;20120;-80
2022/06/09 06:04:22;;;;;;;15.48;7.03;;;;;;;26.65;29.53;99658.78;5015903;28;20033;-81
2022/06/09 06:06:49;;;;;;;17.92;7.00;;;;;;;26.61;29.17;99667.97;5016082;28;20054;-81
2022/06/09 06:09:19;;;;;;;17.35;6.75;;;;;;;26.52;29.04;99656.91;5004177;28;20053;-81
2022/06/09 06:11:47;;;;;;;14.23;6.25;;;;;;;26.29;29.52;99649.53;5025380;28;20084;-82
2022/06/09 06:14:15;;;;;;;13.53;5.73;;;;;;;26.41;28.21;99651.38;5022455;28;20149;-81
2022/06/09 06:16:44;;;;;;;12.73;6.00;;;;;;;26.44;28.18;99643.16;5022688;28;20076;-82
2022/06/09 06:19:17;;;;;;;13.32;5.65;;;;;;;26.34;28.14;99620.63;5016195;28;20144;-81
2022/06/09 06:21:48;;;;;;;12.00;5.20;;;;;;;26.44;28.11;99642.31;5016623;28;20050;-81
2022/06/09 06:24:20;;;;;;;15.43;4.88;;;;;;;26.43;28.05;99654.81;5017369;28;20049;-81
2022/06/09 06:26:47;;;;;;;12.48;4.53;;;;;;;26.42;28.02;99642.41;5015652;28;20107;-80
2022/06/09 06:29:17;;;;;;;12.27;4.57;;;;;;;26.54;28.16;99649.63;5015747;28;20054;-82
2022/06/09 06:31:44;;;;;;;9.77;4.35;;;;;;;26.57;27.57;99653.94;5014873;28;20076;-82
2022/06/09 06:34:12;;;;;;;7.53;3.92;;;;;;;26.52;27.06;99648.88;5015683;28;20060;-81
2022/06/09 06:36:42;;;;;;;5.80;3.92;;;;;;;26.43;27.40;99645.94;5015598;28;20053;-82
2022/06/09 06:39:13;;;;;;;12.48;4.35;;;;;;;26.46;27.61;99641.25;5015842;28;20049;-81
2022/06/09 06:41:40;;;;;;;10.13;4.00;;;;;;;26.53;27.22;99644.38;5015715;28;20054;-81
2022/06/09 06:44:07;;;;;;;11.85;4.43;;;;;;;26.43;27.17;99632.53;5015640;28;20050;-83
2022/06/09 06:46:34;;;;;;;12.40;4.10;;;;;;;26.48;26.91;99646.47;5015773;28;20072;-83
2022/06/09 06:49:02;;;;;;;17.95;3.85;;;;;;;26.36;26.46;99654.34;5016014;28;20104;-81
2022/06/09 06:51:31;;;;;;;13.30;4.18;;;;;;;26.28;26.73;99637.94;5016285;28;20104;-82
2022/06/09 06:53:59;;;;;;;12.32;4.78;;;;;;;26.34;27.10;99642.88;5023930;28;20106;-80
2022/06/09 06:56:26;;;;;;;7.90;3.90;;;;;;;26.14;26.09;99611.22;5020935;28;20049;-81
2022/06/09 06:58:53;;;;;;;14.75;4.28;;;;;;;26.22;26.28;99640.16;4999955;28;20473;-81
2022/06/09 07:01:22;;;;;;;6.72;3.60;;;;;;;26.37;26.57;99633.78;5015006;28;20057;-81
2022/06/09 07:03:50;;;;;;;5.15;3.28;;;;;;;26.30;26.95;99635.16;5014914;28;20054;-82
2022/06/09 07:06:17;;;;;;;6.53;3.75;;;;;;;26.37;27.07;99639.16;5013813;28;20054;-81
2022/06/09 07:08:45;;;;;;;7.50;3.83;;;;;;;26.45;27.09;99636.81;4997535;28;20054;-81
2022/06/09 07:11:12;;;;;;;9.30;3.85;;;;;;;26.31;26.77;99621.69;5012908;28;20154;-81
2022/06/09 07:13:50;;;;;;;10.57;3.90;;;;;;;26.53;27.19;99639.84;4997771;28;20498;-85
2022/06/09 07:16:17;;;;;;;8.15;3.70;;;;;;;26.54;27.25;99630.88;5031808;28;20132;-83
2022/06/09 07:19:05;;;;;;;7.43;4.07;;;;;;;26.65;27.13;99637.34;5034231;28;20057;-81
2022/06/09 07:21:32;;;;;;;11.38;3.80;;;;;;;26.59;27.20;99619.00;5034383;28;20140;-82
2022/06/09 07:23:59;;;;;;;4.18;3.55;;;;;;;26.74;27.32;99639.44;5039408;28;20049;-81
2022/06/09 07:26:40;;;;;;;5.53;3.72;;;;;;;26.59;27.02;99609.19;5040585;28;20080;-84
2022/06/09 07:29:25;;;;;;;9.30;3.40;;;;;;;26.70;26.64;99636.09;5032587;28;20072;-82
2022/06/09 07:31:53;;;;;;;9.93;3.67;;;;;;;26.70;27.03;99640.59;5033127;28;20057;-81
2022/06/09 07:34:20;;;;;;;9.77;3.67;;;;;;;26.83;26.67;99633.44;5032998;28;20057;-81
2022/06/09 07:36:47;;;;;;;8.80;4.05;;;;;;;26.98;26.15;99623.50;5034175;28;20053;-82
2022/06/09 07:39:15;;;;;;;7.63;3.70;;;;;;;27.05;25.50;99624.78;5033999;28;20061;-82
2022/06/09 07:41:42;;;;;;;6.80;3.35;;;;;;;27.23;25.44;99635.22;5033716;28;20061;-82
2022/06/09 07:44:10;;;;;;;5.65;3.17;;;;;;;27.25;24.73;99626.13;5033690;28;20417;-81
2022/06/09 07:46:39;;;;;;;6.05;3.20;;;;;;;27.37;24.76;99627.94;5033735;28;20049;-81
2022/06/09 07:49:06;;;;;;;;;;;;;;;27.24;25.47;99627.09;5034144;28;20057;-81
2022/06/09 07:51:34;;;;;;;5.45;2.75;;;;;;;27.14;24.55;99624.16;5033662;28;19925;-82
2022/06/09 07:54:01;;;;;;;4.70;3.00;;;;;;;27.13;24.48;99633.16;5032448;28;20049;-82
2022/06/09 07:56:29;;;;;;;16.75;4.03;;;;;;;27.19;24.20;99626.53;5033769;28;20402;-82
2022/06/09 07:58:56;;;;;;;7.72;3.40;;;;;;;27.14;24.36;99628.66;5035389;28;20057;-83
2022/06/09 08:01:32;;;;;;;6.82;3.63;;;;;;;27.28;24.50;99635.78;5024555;28;20053;-83
2022/06/09 08:03:59;;;;;;;9.13;3.00;;;;;;;27.21;24.01;99623.72;5035210;28;20063;-81
2022/06/09 08:06:27;;;;;;;10.32;3.35;;;;;;;27.14;23.64;99629.50;5033696;28;20061;-82
2022/06/09 08:08:58;;;;;;;7.63;3.20;;;;;;;26.92;23.97;99621.25;5033526;28;20100;-83
2022/06/09 08:11:32;;;;;;;6.80;3.15;;;;;;;26.76;23.75;99630.31;5034409;28;20103;-82
2022/06/09 08:14:01;;;;;;;5.93;3.17;;;;;;;26.70;24.18;99630.75;5033632;28;20060;-82
2022/06/09 08:16:29;;;;;;;5.95;2.85;;;;;;;26.67;24.45;99628.28;5054809;28;20080;-83
2022/06/09 08:18:59;;;;;;;6.53;3.28;;;;;;;26.66;24.58;99618.50;5055657;28;20036;-82
2022/06/09 08:21:34;;;;;;;4.70;3.10;;;;;;;26.62;24.90;99624.19;5057578;28;20120;-82
2022/06/09 08:24:19;;;;;;;;;;;;;;;26.47;24.96;99623.34;5039312;28;20144;-82
2022/06/09 08:26:52;;;;;;;5.93;2.95;;;;;;;26.70;24.92;99611.13;5019562;28;20002;-81
2022/06/09 08:29:32;;;;;;;4.82;2.88;;;;;;;26.67;24.90;99592.56;5033564;28;20068;-81
2022/06/09 08:32:07;;;;;;;4.28;2.75;;;;;;;26.67;24.72;99620.25;5031959;28;20532;-82
2022/06/09 08:34:34;;;;;;;4.68;3.05;;;;;;;26.68;24.57;99629.97;5033387;28;20050;-83
2022/06/09 08:37:04;;;;;;;7.00;2.78;;;;;;;26.59;24.18;99622.56;5034225;28;20057;-82
2022/06/09 08:39:32;;;;;;;6.22;2.83;;;;;;;26.58;24.86;99623.50;5039906;28;20050;-82
2022/06/09 08:42:20;;;;;;;7.78;4.10;;;;;;;26.70;25.04;99611.13;5020977;28;20069;-83
2022/06/09 08:44:56;;;;;;;6.80;3.05;;;;;;;26.76;24.68;99610.72;5033640;28;20056;-84
2022/06/09 08:47:50;;;;;;;5.05;3.40;;;;;;;26.75;24.56;99617.03;5033041;28;20440;-82
2022/06/09 08:50:32;;;;;;;4.85;3.13;;;;;;;26.71;24.69;99615.50;5032357;28;20080;-82
2022/06/09 08:53:41;;;;;;;6.40;3.13;;;;;;;26.72;24.64;99610.06;5025495;28;20084;-83
2022/06/09 08:56:18;;;;;;;;;;;;;;;26.79;24.64;99606.97;5033172;28;20137;-82
2022/06/09 08:58:58;;;;;;;8.38;3.20;;;;;;;26.88;24.33;99612.53;5035744;28;19952;-82
2022/06/09 09:01:40;;;;;;;7.25;3.30;;;;;;;26.88;24.46;99603.66;5038574;28;20049;-83
2022/06/09 09:04:08;;;;;;;6.28;3.45;;;;;;;26.99;24.43;99606.44;5045793;28;20049;-84
2022/06/09 09:06:43;;;;;;;3.47;3.17;;;;;;;26.95;24.43;99591.53;5033192;28;20053;-83
2022/06/09 09:09:22;;;;;;;5.07;3.30;;;;;;;27.09;24.27;99599.50;5031701;28;20111;-83
2022/06/09 09:11:55;;;;;;;5.30;3.30;;;;;;;27.19;24.23;99610.44;5032492;28;20357;-82
2022/06/09 09:14:36;;;;;;;5.22;2.92;;;;;;;27.18;24.20;99598.00;5031865;28;20060;-82
2022/06/09 09:17:18;;;;;;;5.13;3.00;;;;;;;27.23;24.12;99593.19;5032390;28;20088;-84
2022/06/09 09:19:51;;;;;;;10.60;3.58;;;;;;;27.28;23.69;99591.06;5032401;28;20144;-82
2022/06/09 09:22:41;;;;;;;6.63;3.40;;;;;;;27.07;23.98;99596.06;5031355;28;20057;-82
2022/06/09 09:25:13;;;;;;;5.75;2.70;;;;;;;27.03;22.60;99594.56;5009621;28;20116;-82
2022/06/09 09:28:01;;;;;;;4.07;2.78;;;;;;;27.04;21.77;99598.09;5013145;28;20144;-82
2022/06/09 09:30:37;;;;;;;6.47;2.70;;;;;;;27.01;21.44;99585.75;5013079;28;20061;-81
2022/06/09 09:33:05;;;;;;;5.80;2.55;;;;;;;26.93;21.99;99589.00;5012945;28;20081;-84
2022/06/09 09:35:41;;;;;;;5.65;2.90;;;;;;;26.89;21.92;99583.94;5015649;28;20512;-83
2022/06/09 09:38:11;;;;;;;3.83;2.85;;;;;;;26.92;21.67;99589.09;5016060;28;20140;-83
2022/06/09 09:40:44;;;;;;;3.53;2.67;;;;;;;26.97;22.05;99581.56;5016247;28;20053;-83
2022/06/09 09:43:16;;;;;;;10.32;2.63;;;;;;;27.08;21.75;99586.19;5016464;28;20490;-82
2022/06/09 09:45:47;;;;;;;3.45;2.38;;;;;;;27.10;21.15;99589.63;5025979;28;20061;-81
2022/06/09 09:48:18;;;;;;;7.85;2.72;;;;;;;27.06;21.13;99577.41;5037220;28;20058;-83
2022/06/09 09:50:56;;;;;;;6.85;2.50;;;;;;;27.06;21.57;99572.03;5016922;28;20107;-81
2022/06/09 09:53:27;;;;;;;3.95;2.40;;;;;;;27.14;21.14;99570.53;5017125;28;20061;-82
2022/06/09 09:56:05;;;;;;;3.20;2.53;;;;;;;27.10;20.98;99579.78;5016491;28;20058;-82
2022/06/09 09:58:39;;;;;;;4.28;2.50;;;;;;;26.98;21.23;99577.94;5017244;28;20058;-83
2022/06/09 10:01:28;;;;;;;7.40;4.20;;;;;;;26.95;21.59;99576.34;5016103;28;20073;-82
2022/06/09 10:10:22;;;;;;;17.33;12.23;;;;;;;27.09;21.72;99570.00;5034678;28;20037;-83
2022/06/09 10:12:49;;;;;;;7.47;3.20;;;;;;;26.98;21.34;99558.34;5034150;28;20077;-81
2022/06/09 10:15:41;;;;;;;4.10;3.05;;;;;;;26.96;21.52;99566.47;5035658;28;20068;-81
2022/06/09 10:18:20;;;;;;;6.65;3.13;;;;;;;27.06;21.83;99561.31;5035633;28;20049;-81
2022/06/09 10:21:04;;;;;;;7.57;2.88;;;;;;;27.12;21.75;99561.75;5035466;28;20037;-82
2022/06/09 10:23:44;;;;;;;5.32;2.83;;;;;;;27.03;21.56;99556.19;5035518;28;20099;-82
2022/06/09 10:26:18;;;;;;;6.80;2.60;;;;;;;27.01;21.50;99561.63;5035369;28;20053;-83
2022/06/09 10:29:11;;;;;;;6.95;2.70;;;;;;;27.07;21.33;99555.84;5035663;28;20064;-83
2022/06/09 10:32:02;;;;;;;4.45;2.72;;;;;;;27.12;21.34;99561.75;5031273;28;20489;-82
2022/06/09 10:34:43;;;;;;;6.32;2.67;;;;;;;27.10;21.29;99562.81;5035520;28;20107;-82
2022/06/09 10:37:27;;;;;;;5.80;2.65;;;;;;;27.11;21.20;99557.38;5035401;28;20049;-83
2022/06/09 10:40:22;;;;;;;6.07;2.72;;;;;;;27.18;21.44;99549.75;5033922;28;20072;-83
2022/06/09 10:43:00;;;;;;;6.15;2.90;;;;;;;27.24;21.35;99552.03;5034616;28;20069;-86
2022/06/09 10:46:12;;;;;;;9.60;3.85;;;;;;;27.22;22.27;99553.97;5033458;28;20049;-82
2022/06/09 10:55:28;;;;;;;6.82;3.47;;;;;;;27.33;21.74;99547.84;5015038;28;20141;-81
2022/06/09 10:58:23;;;;;;;5.53;3.03;;;;;;;27.33;21.23;99550.50;5014997;28;20054;-82
2022/06/09 11:00:51;;;;;;;5.28;3.22;;;;;;;27.24;22.44;99549.34;5015146;28;20054;-80
2022/06/09 11:03:40;;;;;;;8.50;3.57;;;;;;;27.14;22.54;99549.09;5015482;28;20050;-81
2022/06/09 11:06:39;;;;;;;9.90;4.07;;;;;;;27.16;23.07;99530.22;5015093;28;20058;-81
2022/06/09 11:09:10;;;;;;;7.80;3.47;;;;;;;27.30;22.83;99542.69;4997042;28;20108;-83
2022/06/09 11:12:23;;;;;;;6.05;3.00;;;;;;;27.12;22.88;99534.94;5014577;28;20058;-81
2022/06/09 11:14:53;;;;;;;6.18;3.10;;;;;;;27.21;22.74;99537.94;5004816;28;20085;-83
2022/06/09 11:18:02;;;;;;;5.85;3.30;;;;;;;27.16;22.81;99535.59;5014319;28;20053;-84
2022/06/09 11:20:55;;;;;;;4.97;3.47;;;;;;;27.15;23.06;99534.75;5014433;28;20426;-82
2022/06/09 11:23:48;;;;;;;4.75;3.10;;;;;;;27.10;22.50;99542.25;5014786;28;20054;-82
2022/06/09 11:26:33;;;;;;;4.47;3.28;;;;;;;27.07;22.63;99536.25;5014415;28;20137;-82
2022/06/09 11:29:19;;;;;;;6.70;4.15;;;;;;;26.81;22.58;99512.13;5014505;28;20121;-83
2022/06/09 11:32:05;;;;;;;4.85;3.30;;;;;;;26.70;23.04;99522.72;5014697;28;20060;-83
2022/06/09 11:34:54;;;;;;;5.88;3.20;;;;;;;26.92;23.02;99533.66;5028371;28;20053;-83
2022/06/09 11:37:48;;;;;;;7.95;3.22;;;;;;;27.08;22.63;99524.53;5037607;28;20054;-83
2022/06/09 11:40:23;;;;;;;9.13;3.90;;;;;;;27.08;22.86;99540.63;5016629;28;20541;-82
2022/06/09 11:43:13;;;;;;;7.03;3.35;;;;;;;27.09;23.07;99526.28;5013682;28;20434;-82
2022/06/09 11:45:52;;;;;;;8.68;3.22;;;;;;;27.27;22.73;99526.81;5013957;28;20054;-83
2022/06/09 11:48:28;;;;;;;5.32;3.33;;;;;;;27.36;22.80;99531.50;5014215;28;20057;-83
2022/06/09 11:50:57;;;;;;;10.35;3.53;;;;;;;27.33;22.74;99531.75;5014722;28;20072;-82
2022/06/09 11:53:29;;;;;;;10.27;3.70;;;;;;;27.28;23.20;99529.41;5030555;28;20046;-82
2022/06/09 11:56:33;;;;;;;10.18;3.65;;;;;;;27.25;23.35;99531.44;5022545;28;20032;-83
2022/06/09 11:59:13;;;;;;;6.80;3.80;;;;;;;27.33;23.14;99526.38;5036857;28;20041;-81
2022/06/09 12:01:40;;;;;;;8.95;3.70;;;;;;;27.35;22.91;99525.31;5037400;28;20045;-82
2022/06/09 12:04:23;;;;;;;7.40;3.33;;;;;;;27.40;23.13;99521.44;5027219;28;20054;-83
2022/06/09 12:07:02;;;;;;;6.70;3.60;;;;;;;27.43;23.19;99521.22;5017913;28;20061;-82
2022/06/09 12:10:07;;;;;;;4.57;3.38;;;;;;;27.44;23.08;99518.41;5013253;28;20160;-83
2022/06/09 12:12:43;;;;;;;8.82;4.43;;;;;;;27.26;22.77;99509.03;5028838;28;20057;-83
2022/06/09 12:15:47;;;;;;;12.93;3.83;;;;;;;27.28;22.96;99518.66;5013013;28;20050;-83
2022/06/09 12:18:16;;;;;;;6.50;3.53;;;;;;;27.39;22.88;99517.91;4991063;28;20074;-81
2022/06/09 12:21:03;;;;;;;11.82;4.47;;;;;;;27.47;23.07;99509.28;5009628;28;20061;-84
2022/06/09 12:23:52;;;;;;;10.82;5.28;;;;;;;27.49;23.30;99504.66;5001852;28;20049;-82